createdAt,value
2016-12-24T00:01:05.859Z,19
2016-12-24T00:02:16.124Z,18.98
2016-12-24T00:03:26.086Z,19
2016-12-24T00:04:35.747Z,18.89
2016-12-24T00:05:45.382Z,18.97
2016-12-24T00:06:55.641Z,18.97
2016-12-24T00:08:05.631Z,18.98
2016-12-24T00:09:15.587Z,18.86
2016-12-24T00:10:25.859Z,19.05
2016-12-24T00:11:35.500Z,18.92
2016-12-24T00:12:45.466Z,19
2016-12-24T00:13:55.439Z,18.94
2016-12-24T00:15:05.721Z,19
2016-12-24T00:16:15.676Z,18.86
2016-12-24T00:17:25.331Z,18.98
2016-12-24T00:18:35.597Z,19.05
2016-12-24T00:19:45.859Z,18.94
2016-12-24T00:20:56.134Z,18.89
2016-12-24T00:22:05.766Z,18.98
2016-12-24T00:23:16.058Z,18.96
2016-12-24T00:24:26.003Z,18.98
2016-12-24T00:25:35.971Z,18.92
2016-12-24T00:26:46.246Z,18.91
2016-12-24T00:27:56.208Z,18.92
2016-12-24T00:29:06.212Z,18.88
2016-12-24T00:30:16.166Z,18.88
2016-12-24T00:31:25.808Z,18.89
2016-12-24T00:32:35.763Z,18.91
2016-12-24T00:33:46.035Z,18.92
2016-12-24T00:34:55.983Z,18.92
2016-12-24T00:36:05.945Z,18.89
2016-12-24T00:37:15.904Z,18.88
2016-12-24T00:38:25.862Z,18.96
2016-12-24T00:39:35.817Z,18.91
2016-12-24T00:40:45.462Z,18.89
2016-12-24T00:41:55.411Z,18.94
2016-12-24T00:43:05.379Z,18.89
2016-12-24T00:44:15.648Z,18.91
2016-12-24T00:45:25.923Z,18.92
2016-12-24T00:46:35.885Z,18.91
2016-12-24T00:47:45.833Z,18.96
2016-12-24T00:48:55.490Z,18.88
2016-12-24T00:50:05.767Z,18.96
2016-12-24T00:51:15.731Z,18.89
2016-12-24T00:52:25.686Z,18.94
2016-12-24T00:53:35.366Z,18.96
2016-12-24T00:54:45.632Z,18.91
2016-12-24T00:55:55.897Z,18.91
2016-12-24T00:57:06.148Z,18.91
2016-12-24T00:58:16.121Z,18.89
2016-12-24T00:59:25.772Z,18.98
2016-12-24T01:00:35.734Z,18.94
2016-12-24T01:01:46.076Z,18.89
2016-12-24T01:02:56.016Z,18.89
2016-12-24T01:04:05.977Z,18.88
2016-12-24T01:05:16.240Z,18.94
2016-12-24T01:06:25.945Z,18.89
2016-12-24T01:07:35.895Z,18.92
2016-12-24T01:08:46.164Z,18.89
2016-12-24T01:09:56.118Z,18.92
2016-12-24T01:11:06.384Z,18.96
2016-12-24T01:12:16.023Z,18.94
2016-12-24T01:13:25.977Z,18.88
2016-12-24T01:14:35.923Z,18.82
2016-12-24T01:15:46.188Z,18.92
2016-12-24T01:16:55.846Z,18.83
2016-12-24T01:18:05.807Z,18.96
2016-12-24T01:19:16.083Z,18.94
2016-12-24T01:20:26.045Z,18.86
2016-12-24T01:21:35.999Z,18.86
2016-12-24T01:22:45.334Z,18.92
2016-12-24T01:23:55.292Z,18.83
2016-12-24T01:25:05.238Z,18.92
2016-12-24T01:26:15.184Z,18.92
2016-12-24T01:27:25.453Z,18.97
2016-12-24T01:28:35.404Z,18.83
2016-12-24T01:29:45.359Z,18.83
2016-12-24T01:30:55.314Z,18.89
2016-12-24T01:32:05.259Z,18.97
2016-12-24T01:33:15.517Z,18.83
2016-12-24T01:34:25.776Z,18.85
2016-12-24T01:35:35.727Z,18.83
2016-12-24T01:36:45.670Z,18.88
2016-12-24T01:37:55.625Z,18.85
2016-12-24T01:39:05.273Z,18.86
2016-12-24T01:40:15.234Z,18.86
2016-12-24T01:41:25.173Z,18.94
2016-12-24T01:42:34.815Z,18.89
2016-12-24T01:43:44.454Z,18.86
2016-12-24T01:44:54.406Z,18.85
2016-12-24T01:46:04.659Z,18.86
2016-12-24T01:47:14.297Z,18.89
2016-12-24T01:48:24.850Z,18.86
2016-12-24T01:49:34.495Z,18.91
2016-12-24T01:50:44.451Z,18.83
2016-12-24T01:51:54.403Z,18.86
2016-12-24T01:53:04.380Z,18.86
2016-12-24T01:54:14.012Z,18.89
2016-12-24T01:55:24.061Z,18.86
2016-12-24T01:56:34.325Z,18.83
2016-12-24T01:57:44.281Z,18.94
2016-12-24T01:58:54.233Z,18.83
2016-12-24T02:00:03.881Z,18.85
2016-12-24T02:01:13.515Z,18.88
2016-12-24T02:02:23.780Z,18.82
2016-12-24T02:03:34.047Z,18.88
2016-12-24T02:04:44.312Z,18.83
2016-12-24T02:05:54.575Z,18.89
2016-12-24T02:07:04.524Z,18.82
2016-12-24T02:08:14.196Z,18.88
2016-12-24T02:09:24.456Z,18.86
2016-12-24T02:10:34.411Z,18.86
2016-12-24T02:11:44.368Z,18.85
2016-12-24T02:12:54.314Z,18.86
2016-12-24T02:14:03.959Z,18.86
2016-12-24T02:15:14.218Z,18.83
2016-12-24T02:16:23.871Z,18.89
2016-12-24T02:17:34.132Z,18.83
2016-12-24T02:18:43.764Z,18.88
2016-12-24T02:19:54.032Z,18.91
2016-12-24T02:21:04.295Z,18.91
2016-12-24T02:22:14.253Z,18.89
2016-12-24T02:23:24.519Z,18.89
2016-12-24T02:24:34.476Z,18.82
2016-12-24T02:25:44.422Z,18.83
2016-12-24T02:26:53.440Z,18.83
2016-12-24T02:28:03.702Z,18.89
2016-12-24T02:29:13.340Z,18.89
2016-12-24T02:30:23.600Z,18.86
2016-12-24T02:31:33.551Z,18.88
2016-12-24T02:32:43.805Z,18.91
2016-12-24T02:33:54.068Z,18.83
2016-12-24T02:35:04.029Z,18.86
2016-12-24T02:36:13.971Z,18.83
2016-12-24T02:37:23.919Z,18.88
2016-12-24T02:38:34.175Z,18.83
2016-12-24T02:39:44.124Z,18.83
2016-12-24T02:40:54.086Z,18.83
2016-12-24T02:42:04.051Z,18.96
2016-12-24T02:43:13.992Z,18.85
2016-12-24T02:44:23.954Z,18.89
2016-12-24T02:45:34.217Z,18.89
2016-12-24T02:46:44.184Z,18.83
2016-12-24T02:47:54.434Z,18.89
2016-12-24T02:49:04.684Z,18.88
2016-12-24T02:50:14.956Z,18.89
2016-12-24T02:51:25.209Z,18.81
2016-12-24T02:52:34.860Z,18.79
2016-12-24T02:53:44.511Z,18.85
2016-12-24T02:54:54.767Z,18.85
2016-12-24T02:56:05.030Z,18.88
2016-12-24T02:57:15.280Z,18.85
2016-12-24T02:58:25.564Z,18.86
2016-12-24T02:59:35.510Z,18.91
2016-12-24T03:00:45.759Z,18.83
2016-12-24T03:01:55.712Z,18.89
2016-12-24T03:03:05.654Z,18.89
2016-12-24T03:04:15.295Z,18.85
2016-12-24T03:05:25.247Z,18.88
2016-12-24T03:06:35.196Z,18.85
2016-12-24T03:07:45.139Z,18.89
2016-12-24T03:08:55.094Z,18.89
2016-12-24T03:10:05.339Z,18.96
2016-12-24T03:11:15.616Z,18.92
2016-12-24T03:12:25.606Z,18.85
2016-12-24T03:13:35.584Z,18.89
2016-12-24T03:14:45.225Z,18.88
2016-12-24T03:15:55.178Z,18.83
2016-12-24T03:17:04.816Z,18.89
2016-12-24T03:18:15.078Z,18.83
2016-12-24T03:19:25.037Z,18.88
2016-12-24T03:20:35.301Z,18.88
2016-12-24T03:21:45.257Z,18.85
2016-12-24T03:22:55.200Z,18.89
2016-12-24T03:24:05.159Z,18.89
2016-12-24T03:25:15.116Z,18.89
2016-12-24T03:26:25.379Z,18.86
2016-12-24T03:27:35.341Z,18.82
2016-12-24T03:28:44.985Z,18.86
2016-12-24T03:29:54.675Z,18.88
2016-12-24T03:31:04.956Z,18.88
2016-12-24T03:32:15.458Z,18.85
2016-12-24T03:33:25.703Z,18.88
2016-12-24T03:34:35.353Z,18.78
2016-12-24T03:35:45.606Z,18.88
2016-12-24T03:36:55.878Z,18.92
2016-12-24T03:38:05.828Z,18.89
2016-12-24T03:39:16.093Z,18.89
2016-12-24T03:40:26.131Z,18.78
2016-12-24T03:41:35.458Z,18.78
2016-12-24T03:42:45.108Z,18.85
2016-12-24T03:43:55.373Z,18.88
2016-12-24T03:45:05.018Z,18.94
2016-12-24T03:46:14.998Z,18.79
2016-12-24T03:47:24.950Z,18.78
2016-12-24T03:48:35.200Z,18.91
2016-12-24T03:49:44.845Z,18.91
2016-12-24T03:50:54.175Z,18.92
2016-12-24T03:52:04.124Z,18.88
2016-12-24T03:53:14.384Z,18.85
2016-12-24T03:54:24.326Z,18.88
2016-12-24T03:55:34.308Z,18.94
2016-12-24T03:56:44.259Z,18.92
2016-12-24T03:57:54.528Z,18.83
2016-12-24T03:59:04.169Z,18.85
2016-12-24T04:00:14.122Z,18.88
2016-12-24T04:01:24.173Z,18.85
2016-12-24T04:02:34.116Z,18.88
2016-12-24T04:03:44.069Z,18.83
2016-12-24T04:04:54.332Z,18.92
2016-12-24T04:06:04.576Z,18.89
2016-12-24T04:07:14.839Z,18.86
2016-12-24T04:08:24.794Z,18.76
2016-12-24T04:09:35.046Z,18.91
2016-12-24T04:10:44.992Z,18.86
2016-12-24T04:11:55.261Z,18.89
2016-12-24T04:13:05.216Z,18.89
2016-12-24T04:14:15.491Z,18.78
2016-12-24T04:15:25.440Z,18.78
2016-12-24T04:16:35.713Z,18.85
2016-12-24T04:17:45.985Z,18.85
2016-12-24T04:18:55.943Z,18.82
2016-12-24T04:20:05.901Z,18.92
2016-12-24T04:21:16.052Z,18.89
2016-12-24T04:22:26.308Z,18.88
2016-12-24T04:23:35.952Z,18.86
2016-12-24T04:24:45.892Z,18.89
2016-12-24T04:25:55.860Z,18.88
2016-12-24T04:27:05.821Z,18.91
2016-12-24T04:28:16.079Z,18.86
2016-12-24T04:29:25.712Z,18.88
2016-12-24T04:30:35.652Z,18.94
2016-12-24T04:31:45.597Z,18.88
2016-12-24T04:32:55.857Z,18.89
2016-12-24T04:34:06.138Z,18.78
2016-12-24T04:35:16.084Z,18.89
2016-12-24T04:36:25.716Z,18.86
2016-12-24T04:37:35.997Z,18.88
2016-12-24T04:38:45.943Z,18.88
2016-12-24T04:39:56.206Z,18.83
2016-12-24T04:41:06.160Z,18.89
2016-12-24T04:42:16.109Z,18.89
2016-12-24T04:43:25.741Z,18.82
2016-12-24T04:44:35.694Z,18.86
2016-12-24T04:45:45.966Z,18.85
2016-12-24T04:46:55.607Z,18.97
2016-12-24T04:48:05.857Z,18.88
2016-12-24T04:49:15.492Z,18.88
2016-12-24T04:50:25.455Z,18.85
2016-12-24T04:51:34.788Z,18.85
2016-12-24T04:52:44.423Z,18.85
2016-12-24T04:53:54.379Z,18.89
2016-12-24T04:55:04.833Z,18.86
2016-12-24T04:56:14.777Z,18.96
2016-12-24T04:57:24.721Z,18.89
2016-12-24T04:58:34.359Z,18.88
2016-12-24T04:59:44.004Z,18.81
2016-12-24T05:00:53.691Z,18.88
2016-12-24T05:02:03.956Z,18.83
2016-12-24T05:03:13.911Z,18.83
2016-12-24T05:04:24.267Z,18.83
2016-12-24T05:05:34.219Z,18.83
2016-12-24T05:06:44.497Z,18.85
2016-12-24T05:07:54.754Z,18.89
2016-12-24T05:09:04.715Z,18.85
2016-12-24T05:10:14.975Z,18.94
2016-12-24T05:11:24.923Z,18.85
2016-12-24T05:12:34.877Z,18.85
2016-12-24T05:13:45.141Z,18.89
2016-12-24T05:14:55.082Z,18.92
2016-12-24T05:16:05.336Z,18.82
2016-12-24T05:17:15.285Z,18.89
2016-12-24T05:18:25.545Z,18.89
2016-12-24T05:19:35.810Z,18.88
2016-12-24T05:20:45.451Z,18.86
2016-12-24T05:21:55.705Z,18.85
2016-12-24T05:23:05.967Z,18.94
2016-12-24T05:24:15.666Z,18.86
2016-12-24T05:25:25.624Z,18.92
2016-12-24T05:26:35.890Z,18.89
2016-12-24T05:27:46.157Z,18.83
2016-12-24T05:28:56.101Z,18.88
2016-12-24T05:30:06.361Z,18.81
2016-12-24T05:31:16.620Z,18.85
2016-12-24T05:32:27.045Z,18.85
2016-12-24T05:33:37.304Z,18.83
2016-12-24T05:34:47.564Z,18.86
2016-12-24T05:35:57.529Z,18.85
2016-12-24T05:37:07.793Z,18.85
2016-12-24T05:38:17.740Z,18.86
2016-12-24T05:39:27.679Z,18.86
2016-12-24T05:40:37.636Z,18.88
2016-12-24T05:41:47.897Z,18.86
2016-12-24T05:42:57.845Z,18.86
2016-12-24T05:44:08.159Z,18.85
2016-12-24T05:45:18.111Z,18.82
2016-12-24T05:46:28.076Z,18.86
2016-12-24T05:47:38.556Z,18.81
2016-12-24T05:48:48.194Z,18.88
2016-12-24T05:49:58.188Z,18.94
2016-12-24T05:51:08.153Z,18.86
2016-12-24T05:52:17.807Z,18.86
2016-12-24T05:53:28.066Z,18.85
2016-12-24T05:54:38.009Z,18.82
2016-12-24T05:55:48.271Z,18.91
2016-12-24T05:56:58.227Z,18.85
2016-12-24T05:58:08.172Z,18.86
2016-12-24T05:59:18.121Z,18.89
2016-12-24T06:00:28.063Z,18.88
2016-12-24T06:01:38.325Z,18.82
2016-12-24T06:02:47.663Z,18.86
2016-12-24T06:03:57.295Z,18.89
2016-12-24T06:05:07.548Z,18.88
2016-12-24T06:06:17.507Z,18.88
2016-12-24T06:07:27.169Z,18.86
2016-12-24T06:08:37.426Z,18.89
2016-12-24T06:09:47.683Z,18.92
2016-12-24T06:10:57.948Z,18.83
2016-12-24T06:12:08.208Z,18.86
2016-12-24T06:13:17.555Z,18.86
2016-12-24T06:14:27.811Z,18.91
2016-12-24T06:15:38.064Z,18.88
2016-12-24T06:16:47.718Z,18.92
2016-12-24T06:17:57.677Z,18.92
2016-12-24T06:19:07.945Z,18.91
2016-12-24T06:20:18.211Z,18.85
2016-12-24T06:21:28.489Z,18.86
2016-12-24T06:22:38.432Z,18.94
2016-12-24T06:23:48.691Z,18.83
2016-12-24T06:24:58.655Z,18.89
2016-12-24T06:26:08.902Z,18.89
2016-12-24T06:27:19.170Z,18.92
2016-12-24T06:28:29.116Z,18.91
2016-12-24T06:29:39.369Z,18.92
2016-12-24T06:30:49.629Z,18.92
2016-12-24T06:31:59.277Z,18.89
2016-12-24T06:33:09.533Z,18.96
2016-12-24T06:34:19.193Z,18.89
2016-12-24T06:35:28.527Z,18.89
2016-12-24T06:36:38.774Z,18.92
2016-12-24T06:37:49.047Z,18.89
2016-12-24T06:38:58.700Z,18.92
2016-12-24T06:40:08.662Z,18.85
2016-12-24T06:41:18.928Z,18.92
2016-12-24T06:42:28.867Z,18.91
2016-12-24T06:43:38.816Z,18.83
2016-12-24T06:44:48.757Z,18.89
2016-12-24T06:45:59.023Z,18.94
2016-12-24T06:47:08.976Z,18.86
2016-12-24T06:48:19.243Z,18.91
2016-12-24T06:49:29.494Z,18.85
2016-12-24T06:50:39.443Z,18.89
2016-12-24T06:51:49.388Z,18.89
2016-12-24T06:52:59.683Z,18.89
2016-12-24T06:54:09.936Z,18.89
2016-12-24T06:55:19.885Z,18.88
2016-12-24T06:56:30.246Z,18.94
2016-12-24T06:57:40.499Z,18.91
2016-12-24T06:58:50.441Z,18.89
2016-12-24T07:00:00.384Z,18.88
2016-12-24T07:01:10.643Z,18.91
2016-12-24T07:02:20.912Z,18.91
2016-12-24T07:03:31.203Z,18.91
2016-12-24T07:04:41.146Z,18.86
2016-12-24T07:05:51.411Z,18.97
2016-12-24T07:07:01.688Z,18.94
2016-12-24T07:08:11.945Z,18.94
2016-12-24T07:09:22.214Z,18.97
2016-12-24T07:10:32.467Z,18.98
2016-12-24T07:11:42.424Z,19
2016-12-24T07:12:52.685Z,18.94
2016-12-24T07:14:02.669Z,18.96
2016-12-24T07:15:12.960Z,18.94
2016-12-24T07:16:22.598Z,18.96
2016-12-24T07:17:32.867Z,19.01
2016-12-24T07:18:42.825Z,18.98
2016-12-24T07:19:53.114Z,19.05
2016-12-24T07:21:03.372Z,18.94
2016-12-24T07:22:13.676Z,18.97
2016-12-24T07:23:23.629Z,18.88
2016-12-24T07:24:33.587Z,18.98
2016-12-24T07:25:43.843Z,18.94
2016-12-24T07:26:53.785Z,19.04
2016-12-24T07:28:03.737Z,18.98
2016-12-24T07:29:14.003Z,19.05
2016-12-24T07:30:23.650Z,18.94
2016-12-24T07:31:33.280Z,19.05
2016-12-24T07:32:42.924Z,18.97
2016-12-24T07:33:52.875Z,18.96
2016-12-24T07:35:03.139Z,19
2016-12-24T07:36:13.410Z,19.04
2016-12-24T07:37:23.663Z,18.97
2016-12-24T07:38:33.983Z,19.04
2016-12-24T07:39:43.001Z,19.05
2016-12-24T07:40:52.345Z,18.97
2016-12-24T07:42:01.987Z,18.97
2016-12-24T07:43:12.265Z,18.96
2016-12-24T07:44:21.920Z,18.98
2016-12-24T07:45:32.188Z,19.08
2016-12-24T07:46:41.532Z,19.04
2016-12-24T07:47:51.506Z,19.07
2016-12-24T07:49:01.875Z,19.08
2016-12-24T07:50:12.143Z,19.05
2016-12-24T07:51:22.106Z,19.08
2016-12-24T07:52:32.058Z,18.96
2016-12-24T07:53:42.323Z,19.07
2016-12-24T07:54:52.604Z,19.05
2016-12-24T07:56:02.576Z,19
2016-12-24T07:57:12.863Z,19
2016-12-24T07:58:22.822Z,19.08
2016-12-24T07:59:33.074Z,19.09
2016-12-24T08:00:43.353Z,19.04
2016-12-24T08:01:53.318Z,19.01
2016-12-24T08:03:03.263Z,19.07
2016-12-24T08:04:13.219Z,19.05
2016-12-24T08:05:23.174Z,19.01
2016-12-24T08:06:33.436Z,19
2016-12-24T08:07:43.400Z,19.05
2016-12-24T08:08:53.352Z,19.07
2016-12-24T08:10:03.308Z,19.07
2016-12-24T08:11:13.567Z,19.09
2016-12-24T08:12:23.826Z,19.04
2016-12-24T08:13:33.182Z,19.08
2016-12-24T08:14:43.135Z,19.05
2016-12-24T08:15:53.417Z,19.05
2016-12-24T08:17:03.685Z,19.05
2016-12-24T08:18:13.647Z,19.08
2016-12-24T08:19:23.618Z,19.12
2016-12-24T08:20:33.263Z,19.04
2016-12-24T08:21:42.923Z,19.05
2016-12-24T08:22:52.572Z,19.08
2016-12-24T08:24:02.527Z,19.09
2016-12-24T08:25:11.877Z,19.07
2016-12-24T08:26:21.848Z,19.12
2016-12-24T08:27:32.131Z,19.07
2016-12-24T08:28:42.396Z,19.07
2016-12-24T08:29:52.373Z,19.08
2016-12-24T08:31:02.322Z,19.11
2016-12-24T08:32:12.596Z,19.04
2016-12-24T08:33:22.562Z,19.08
2016-12-24T08:34:32.517Z,19.08
2016-12-24T08:35:42.789Z,19.16
2016-12-24T08:36:53.114Z,19.05
2016-12-24T08:38:02.750Z,19.08
2016-12-24T08:39:13.010Z,19.11
2016-12-24T08:40:23.297Z,19.01
2016-12-24T08:41:33.569Z,19.08
2016-12-24T08:42:43.518Z,19.08
2016-12-24T08:43:53.480Z,19.08
2016-12-24T08:45:04.044Z,19.08
2016-12-24T08:46:13.998Z,19.05
2016-12-24T08:47:23.960Z,19.09
2016-12-24T08:48:33.915Z,19.05
2016-12-24T08:49:43.870Z,19.08
2016-12-24T08:50:54.155Z,19.09
2016-12-24T08:52:04.422Z,19.08
2016-12-24T08:53:14.379Z,19.09
2016-12-24T08:54:24.347Z,19.04
2016-12-24T08:55:34.622Z,19.08
2016-12-24T08:56:44.568Z,19.15
2016-12-24T08:57:54.536Z,19.08
2016-12-24T08:59:04.816Z,19.19
2016-12-24T09:00:14.776Z,19.17
2016-12-24T09:01:24.416Z,19.11
2016-12-24T09:02:34.684Z,19.16
2016-12-24T09:03:44.680Z,19.24
2016-12-24T09:04:54.324Z,19.16
2016-12-24T09:06:04.293Z,19.19
2016-12-24T09:07:14.245Z,19.2
2016-12-24T09:08:24.504Z,19.15
2016-12-24T09:09:34.786Z,19.2
2016-12-24T09:10:45.047Z,19.15
2016-12-24T09:11:54.992Z,19.16
2016-12-24T09:13:05.260Z,19.2
2016-12-24T09:14:15.519Z,19.17
2016-12-24T09:15:25.469Z,19.15
2016-12-24T09:16:35.741Z,19.17
2016-12-24T09:17:45.988Z,19.19
2016-12-24T09:18:55.333Z,19.2
2016-12-24T09:20:05.643Z,19.19
2016-12-24T09:21:15.604Z,19.22
2016-12-24T09:22:26.048Z,19.19
2016-12-24T09:23:35.413Z,19.17
2016-12-24T09:24:45.377Z,19.19
2016-12-24T09:25:55.668Z,19.2
2016-12-24T09:27:05.313Z,19.22
2016-12-24T09:28:15.259Z,19.2
2016-12-24T09:29:25.230Z,19.17
2016-12-24T09:30:35.204Z,19.19
2016-12-24T09:31:45.153Z,19.22
2016-12-24T09:32:55.422Z,19.16
2016-12-24T09:34:05.692Z,19.19
2016-12-24T09:35:15.656Z,19.17
2016-12-24T09:36:25.931Z,19.17
2016-12-24T09:37:36.193Z,19.17
2016-12-24T09:38:46.452Z,19.17
2016-12-24T09:39:56.420Z,19.2
2016-12-24T09:41:06.697Z,19.17
2016-12-24T09:42:16.961Z,19.2
2016-12-24T09:43:27.240Z,19.19
2016-12-24T09:44:36.885Z,19.2
2016-12-24T09:45:46.879Z,19.19
2016-12-24T09:46:57.141Z,19.15
2016-12-24T09:48:07.133Z,19.17
2016-12-24T09:49:17.396Z,19.15
2016-12-24T09:50:27.662Z,19.2
2016-12-24T09:51:37.619Z,19.16
2016-12-24T09:52:47.563Z,19.17
2016-12-24T09:53:57.518Z,19.22
2016-12-24T09:55:07.812Z,19.22
2016-12-24T09:56:17.784Z,19.19
2016-12-24T09:57:28.045Z,19.19
2016-12-24T09:58:38.299Z,19.24
2016-12-24T09:59:48.260Z,19.24
2016-12-24T10:00:58.209Z,19.22
2016-12-24T10:02:08.183Z,19.24
2016-12-24T10:03:18.462Z,19.22
2016-12-24T10:04:28.424Z,19.24
2016-12-24T10:05:38.376Z,19.27
2016-12-24T10:06:48.629Z,19.19
2016-12-24T10:07:58.594Z,19.22
2016-12-24T10:09:08.901Z,19.29
2016-12-24T10:10:18.559Z,19.27
2016-12-24T10:11:28.515Z,19.2
2016-12-24T10:12:38.501Z,19.27
2016-12-24T10:13:48.197Z,19.22
2016-12-24T10:14:58.183Z,19.29
2016-12-24T10:16:08.463Z,19.17
2016-12-24T10:17:18.431Z,19.3
2016-12-24T10:18:28.728Z,19.26
2016-12-24T10:19:38.687Z,19.2
2016-12-24T10:20:48.945Z,19.22
2016-12-24T10:21:58.614Z,19.26
2016-12-24T10:23:08.929Z,19.23
2016-12-24T10:24:18.875Z,19.23
2016-12-24T10:25:29.147Z,19.23
2016-12-24T10:26:39.099Z,19.2
2016-12-24T10:27:49.073Z,19.24
2016-12-24T10:28:59.044Z,19.27
2016-12-24T10:30:09.336Z,19.29
2016-12-24T10:31:19.617Z,19.24
2016-12-24T10:32:29.576Z,19.32
2016-12-24T10:33:39.841Z,19.29
2016-12-24T10:34:49.511Z,19.17
2016-12-24T10:35:59.825Z,19.22
2016-12-24T10:37:10.093Z,19.27
2016-12-24T10:38:20.366Z,19.27
2016-12-24T10:39:30.024Z,19.27
2016-12-24T10:40:39.995Z,19.29
2016-12-24T10:41:49.642Z,19.24
2016-12-24T10:42:59.928Z,19.27
2016-12-24T10:44:09.569Z,19.37
2016-12-24T10:45:19.844Z,19.32
2016-12-24T10:46:29.792Z,19.24
2016-12-24T10:47:40.074Z,19.24
2016-12-24T10:48:50.055Z,19.29
2016-12-24T10:50:00.323Z,19.3
2016-12-24T10:51:10.279Z,19.29
2016-12-24T10:52:20.246Z,19.23
2016-12-24T10:53:30.212Z,19.32
2016-12-24T10:54:40.510Z,19.29
2016-12-24T10:55:50.794Z,19.23
2016-12-24T10:57:01.069Z,19.23
2016-12-24T10:58:10.398Z,19.3
2016-12-24T10:59:20.669Z,19.27
2016-12-24T11:00:30.420Z,19.32
2016-12-24T11:01:39.453Z,19.24
2016-12-24T11:02:49.716Z,19.26
2016-12-24T11:03:59.687Z,19.29
2016-12-24T11:05:09.649Z,19.3
2016-12-24T11:06:19.286Z,19.29
2016-12-24T11:07:29.236Z,19.26
2016-12-24T11:08:39.216Z,19.27
2016-12-24T11:09:48.861Z,19.3
2016-12-24T11:10:58.506Z,19.26
2016-12-24T11:12:08.465Z,19.27
2016-12-24T11:13:18.432Z,19.26
2016-12-24T11:14:28.084Z,19.29
2016-12-24T11:15:38.379Z,19.3
2016-12-24T11:16:47.728Z,19.29
2016-12-24T11:17:57.060Z,19.34
2016-12-24T11:19:07.037Z,19.34
2016-12-24T11:20:17.002Z,19.24
2016-12-24T11:21:26.976Z,19.3
2016-12-24T11:22:37.235Z,19.34
2016-12-24T11:23:47.520Z,19.35
2016-12-24T11:24:56.869Z,19.34
2016-12-24T11:26:06.819Z,19.32
2016-12-24T11:27:16.807Z,19.32
2016-12-24T11:28:27.069Z,19.32
2016-12-24T11:29:36.730Z,19.34
2016-12-24T11:30:46.682Z,19.34
2016-12-24T11:31:56.960Z,19.26
2016-12-24T11:33:06.922Z,19.32
2016-12-24T11:34:16.873Z,19.29
2016-12-24T11:35:27.140Z,19.32
2016-12-24T11:36:37.100Z,19.3
2016-12-24T11:37:47.385Z,19.34
2016-12-24T11:38:57.350Z,19.27
2016-12-24T11:40:07.609Z,19.35
2016-12-24T11:41:17.580Z,19.32
2016-12-24T11:42:27.528Z,19.34
2016-12-24T11:43:37.817Z,19.32
2016-12-24T11:44:47.521Z,19.41
2016-12-24T11:45:57.505Z,19.32
2016-12-24T11:47:07.455Z,19.3
2016-12-24T11:48:17.729Z,19.32
2016-12-24T11:49:27.713Z,19.34
2016-12-24T11:50:37.352Z,19.3
2016-12-24T11:51:47.316Z,19.3
2016-12-24T11:52:57.598Z,19.37
2016-12-24T11:54:07.860Z,19.35
2016-12-24T11:55:18.152Z,19.3
2016-12-24T11:56:27.815Z,19.42
2016-12-24T11:57:37.140Z,19.29
2016-12-24T11:58:47.428Z,19.35
2016-12-24T11:59:57.729Z,19.35
2016-12-24T12:01:07.707Z,19.34
2016-12-24T12:02:17.972Z,19.34
2016-12-24T12:03:28.232Z,19.32
2016-12-24T12:04:37.892Z,19.37
2016-12-24T12:05:48.430Z,19.38
2016-12-24T12:06:58.097Z,19.35
2016-12-24T12:08:08.084Z,19.3
2016-12-24T12:09:17.732Z,19.41
2016-12-24T12:10:27.387Z,19.37
2016-12-24T12:11:37.652Z,19.29
2016-12-24T12:12:47.623Z,19.37
2016-12-24T12:13:57.584Z,19.37
2016-12-24T12:15:07.844Z,19.39
2016-12-24T12:16:17.796Z,19.38
2016-12-24T12:17:27.761Z,19.34
2016-12-24T12:18:38.064Z,19.35
2016-12-24T12:19:48.032Z,19.37
2016-12-24T12:20:57.739Z,19.34
2016-12-24T12:22:08.054Z,19.29
2016-12-24T12:23:18.356Z,19.37
2016-12-24T12:24:28.320Z,19.32
2016-12-24T12:25:38.598Z,19.32
2016-12-24T12:26:48.566Z,19.32
2016-12-24T12:27:58.841Z,19.35
2016-12-24T12:29:08.962Z,19.34
2016-12-24T12:30:18.919Z,19.35
2016-12-24T12:31:29.188Z,19.35
2016-12-24T12:32:39.498Z,19.35
2016-12-24T12:33:49.459Z,19.34
2016-12-24T12:34:59.437Z,19.39
2016-12-24T12:36:09.696Z,19.37
2016-12-24T12:37:19.360Z,19.38
2016-12-24T12:38:29.671Z,19.32
2016-12-24T12:39:39.626Z,19.35
2016-12-24T12:40:49.895Z,19.38
2016-12-24T12:41:59.568Z,19.39
2016-12-24T12:43:09.524Z,19.34
2016-12-24T12:44:19.795Z,19.38
2016-12-24T12:45:29.449Z,19.35
2016-12-24T12:46:39.088Z,19.37
2016-12-24T12:47:48.430Z,19.38
2016-12-24T12:48:58.397Z,19.35
2016-12-24T12:50:08.663Z,19.34
2016-12-24T12:51:18.945Z,19.32
2016-12-24T12:52:29.214Z,19.32
2016-12-24T12:53:38.872Z,19.34
2016-12-24T12:54:49.044Z,19.37
2016-12-24T12:55:59.309Z,19.39
2016-12-24T12:57:09.293Z,19.34
2016-12-24T12:58:19.245Z,19.39
2016-12-24T12:59:29.530Z,19.34
2016-12-24T13:00:39.998Z,19.35
2016-12-24T13:01:50.280Z,19.35
2016-12-24T13:02:59.983Z,19.35
2016-12-24T13:04:10.254Z,19.37
2016-12-24T13:05:20.254Z,19.38
2016-12-24T13:06:30.202Z,19.38
2016-12-24T13:07:40.471Z,19.34
2016-12-24T13:08:50.743Z,19.32
2016-12-24T13:10:01.019Z,19.41
2016-12-24T13:11:10.865Z,19.38
2016-12-24T13:12:20.516Z,19.41
2016-12-24T13:13:29.861Z,19.39
2016-12-24T13:14:39.813Z,19.41
2016-12-24T13:15:49.828Z,19.41
2016-12-24T13:16:59.505Z,19.37
2016-12-24T13:18:09.460Z,19.34
2016-12-24T13:19:19.742Z,19.35
2016-12-24T13:20:29.713Z,19.37
2016-12-24T13:21:39.986Z,19.34
2016-12-24T13:22:50.283Z,19.34
2016-12-24T13:23:59.953Z,19.35
2016-12-24T13:25:10.005Z,19.38
2016-12-24T13:26:20.283Z,19.37
2016-12-24T13:27:30.568Z,19.42
2016-12-24T13:28:40.834Z,19.34
2016-12-24T13:29:50.767Z,19.35
2016-12-24T13:31:00.729Z,19.37
2016-12-24T13:32:11.010Z,19.35
2016-12-24T13:33:20.679Z,19.38
2016-12-24T13:34:30.953Z,19.37
2016-12-24T13:35:40.913Z,19.39
2016-12-24T13:36:51.199Z,19.35
2016-12-24T13:38:01.148Z,19.35
2016-12-24T13:39:11.411Z,19.35
2016-12-24T13:40:21.372Z,19.37
2016-12-24T13:41:31.638Z,19.35
2016-12-24T13:42:41.638Z,19.35
2016-12-24T13:43:51.619Z,19.35
2016-12-24T13:45:01.583Z,19.35
2016-12-24T13:46:11.875Z,19.35
2016-12-24T13:47:22.146Z,19.34
2016-12-24T13:48:31.788Z,19.39
2016-12-24T13:49:42.300Z,19.38
2016-12-24T13:50:52.592Z,19.34
2016-12-24T13:52:02.855Z,19.39
2016-12-24T13:53:13.114Z,19.35
2016-12-24T13:54:23.440Z,19.37
2016-12-24T13:55:33.709Z,19.39
2016-12-24T13:56:44.029Z,19.38
2016-12-24T13:57:54.313Z,19.34
2016-12-24T13:59:04.649Z,19.35
2016-12-24T14:00:14.602Z,19.37
2016-12-24T14:01:24.550Z,19.32
2016-12-24T14:02:34.829Z,19.37
2016-12-24T14:03:44.806Z,19.38
2016-12-24T14:04:54.778Z,19.27
2016-12-24T14:06:04.736Z,19.35
2016-12-24T14:07:14.390Z,19.39
2016-12-24T14:08:23.732Z,19.37
2016-12-24T14:09:34.003Z,19.37
2016-12-24T14:10:43.952Z,19.38
2016-12-24T14:11:53.974Z,19.34
2016-12-24T14:13:03.677Z,19.37
2016-12-24T14:14:13.943Z,19.29
2016-12-24T14:15:23.905Z,19.35
2016-12-24T14:16:34.167Z,19.39
2016-12-24T14:17:44.145Z,19.38
2016-12-24T14:18:53.809Z,19.37
2016-12-24T14:20:03.457Z,19.37
2016-12-24T14:21:13.725Z,19.37
2016-12-24T14:22:23.363Z,19.32
2016-12-24T14:23:32.995Z,19.39
2016-12-24T14:24:42.627Z,19.34
2016-12-24T14:25:52.269Z,19.35
2016-12-24T14:27:01.933Z,19.35
2016-12-24T14:28:12.199Z,19.32
2016-12-24T14:29:22.205Z,19.37
2016-12-24T14:30:32.161Z,19.32
2016-12-24T14:31:42.122Z,19.32
2016-12-24T14:32:52.440Z,19.35
2016-12-24T14:34:02.404Z,19.37
2016-12-24T14:35:12.666Z,19.32
2016-12-24T14:36:22.308Z,19.35
2016-12-24T14:37:32.282Z,19.35
2016-12-24T14:38:42.560Z,19.32
2016-12-24T14:39:52.832Z,19.39
2016-12-24T14:41:02.849Z,19.37
2016-12-24T14:42:12.814Z,19.32
2016-12-24T14:43:22.770Z,19.32
2016-12-24T14:44:32.729Z,19.39
2016-12-24T14:45:43.009Z,19.37
2016-12-24T14:46:53.268Z,19.41
2016-12-24T14:48:03.246Z,19.35
2016-12-24T14:49:13.489Z,19.32
2016-12-24T14:50:23.761Z,19.35
2016-12-24T14:51:34.027Z,19.3
2016-12-24T14:52:44.292Z,19.32
2016-12-24T14:53:54.573Z,19.37
2016-12-24T14:55:04.254Z,19.39
2016-12-24T14:56:14.529Z,19.32
2016-12-24T14:57:24.490Z,19.34
2016-12-24T14:58:34.769Z,19.34
2016-12-24T14:59:44.400Z,19.38
2016-12-24T15:00:54.347Z,19.37
2016-12-24T15:02:04.305Z,19.39
2016-12-24T15:03:14.258Z,19.3
2016-12-24T15:04:23.912Z,19.32